sensor_id;sensor_type;location;lat;lon;timestamp;temperature;humidity
75363;DHT22;64122;51.988;5.892;2022-12-18T07:28:32;-4.99;79.31
75363;DHT22;64122;51.988;5.892;2022-12-18T07:31:03;-4.56;79.72
75363;DHT22;64122;51.988;5.892;2022-12-18T07:33:33;-4.12;79.32
75363;DHT22;64122;51.988;5.892;2022-12-18T07:36:04;-3.72;78.55
75363;DHT22;64122;51.988;5.892;2022-12-18T07:38:34;-3.38;77.85
75363;DHT22;64122;51.988;5.892;2022-12-18T07:41:06;-3.11;77.16
75363;DHT22;64122;51.988;5.892;2022-12-18T07:43:39;-2.90;76.40
75363;DHT22;64122;51.988;5.892;2022-12-18T07:46:09;-2.69;75.91
75363;DHT22;64122;51.988;5.892;2022-12-18T07:48:39;-2.53;75.49
75363;DHT22;64122;51.988;5.892;2022-12-18T07:51:09;-2.42;74.89
75363;DHT22;64122;51.988;5.892;2022-12-18T07:53:39;-2.24;74.68
75363;DHT22;64122;51.988;5.892;2022-12-18T07:56:11;-2.12;74.09
75363;DHT22;64122;51.988;5.892;2022-12-18T07:58:47;-2.02;73.66
75363;DHT22;64122;51.988;5.892;2022-12-18T08:01:16;-1.92;73.38
75363;DHT22;64122;51.988;5.892;2022-12-18T08:03:45;-1.85;72.77
75363;DHT22;64122;51.988;5.892;2022-12-18T08:06:14;-1.77;72.35
75363;DHT22;64122;51.988;5.892;2022-12-18T08:08:43;-1.69;72.00
75363;DHT22;64122;51.988;5.892;2022-12-18T08:11:12;-1.60;71.68
75363;DHT22;64122;51.988;5.892;2022-12-18T08:13:44;-1.49;71.34
75363;DHT22;64122;51.988;5.892;2022-12-18T08:16:14;-1.40;71.05
75363;DHT22;64122;51.988;5.892;2022-12-18T08:18:43;-1.31;70.56
75363;DHT22;64122;51.988;5.892;2022-12-18T08:21:14;-1.21;70.12
75363;DHT22;64122;51.988;5.892;2022-12-18T08:23:44;-1.19;69.81
75363;DHT22;64122;51.988;5.892;2022-12-18T08:26:14;-1.14;69.53
75363;DHT22;64122;51.988;5.892;2022-12-18T08:28:46;-1.02;69.36
75363;DHT22;64122;51.988;5.892;2022-12-18T08:31:16;-0.99;68.93
75363;DHT22;64122;51.988;5.892;2022-12-18T08:33:45;-0.88;68.56
75363;DHT22;64122;51.988;5.892;2022-12-18T08:36:14;-0.83;68.54
75363;DHT22;64122;51.988;5.892;2022-12-18T08:38:43;-0.75;67.98
75363;DHT22;64122;51.988;5.892;2022-12-18T08:41:14;-0.73;67.81
75363;DHT22;64122;51.988;5.892;2022-12-18T08:43:46;-0.65;67.63
75363;DHT22;64122;51.988;5.892;2022-12-18T08:46:33;-0.57;67.30
75363;DHT22;64122;51.988;5.892;2022-12-18T08:49:04;-0.49;67.06
75363;DHT22;64122;51.988;5.892;2022-12-18T08:51:34;-0.42;66.96
75363;DHT22;64122;51.988;5.892;2022-12-18T08:54:04;-0.41;66.34
75363;DHT22;64122;51.988;5.892;2022-12-18T08:56:34;-0.37;66.46
75363;DHT22;64122;51.988;5.892;2022-12-18T08:59:06;-0.27;66.38
75363;DHT22;64122;51.988;5.892;2022-12-18T09:01:35;-0.26;65.91
75363;DHT22;64122;51.988;5.892;2022-12-18T09:04:04;-0.21;65.79
75363;DHT22;64122;51.988;5.892;2022-12-18T09:06:33;-0.07;65.55
75363;DHT22;64122;51.988;5.892;2022-12-18T09:09:03;-0.02;65.13
75363;DHT22;64122;51.988;5.892;2022-12-18T09:11:33;0.05;65.18
75363;DHT22;64122;51.988;5.892;2022-12-18T09:14:02;0.17;64.84
75363;DHT22;64122;51.988;5.892;2022-12-18T09:16:34;0.35;64.69
75363;DHT22;64122;51.988;5.892;2022-12-18T09:19:04;0.50;64.27
75363;DHT22;64122;51.988;5.892;2022-12-18T09:21:35;0.63;63.82
75363;DHT22;64122;51.988;5.892;2022-12-18T09:24:05;0.75;63.72
75363;DHT22;64122;51.988;5.892;2022-12-18T09:26:35;0.91;63.50
75363;DHT22;64122;51.988;5.892;2022-12-18T09:29:04;1.11;63.12
75363;DHT22;64122;51.988;5.892;2022-12-18T09:31:38;1.26;62.76
75363;DHT22;64122;51.988;5.892;2022-12-18T09:34:07;1.29;62.63
75363;DHT22;64122;51.988;5.892;2022-12-18T09:36:37;1.34;62.45
75363;DHT22;64122;51.988;5.892;2022-12-18T09:39:06;1.35;62.12
75363;DHT22;64122;51.988;5.892;2022-12-18T09:41:42;1.41;62.26
75363;DHT22;64122;51.988;5.892;2022-12-18T09:44:23;1.49;62.31
75363;DHT22;64122;51.988;5.892;2022-12-18T09:49:44;1.46;62.01
75363;DHT22;64122;51.988;5.892;2022-12-18T09:52:18;1.49;61.79
75363;DHT22;64122;51.988;5.892;2022-12-18T09:54:52;1.49;61.67
75363;DHT22;64122;51.988;5.892;2022-12-18T09:57:23;1.49;61.57
75363;DHT22;64122;51.988;5.892;2022-12-18T09:59:56;1.55;61.28
75363;DHT22;64122;51.988;5.892;2022-12-18T10:02:26;1.50;61.34
75363;DHT22;64122;51.988;5.892;2022-12-18T10:05:06;1.54;61.26
75363;DHT22;64122;51.988;5.892;2022-12-18T10:07:47;1.60;61.32
75363;DHT22;64122;51.988;5.892;2022-12-18T10:10:26;1.66;61.16
75363;DHT22;64122;51.988;5.892;2022-12-18T10:13:06;1.69;60.87
75363;DHT22;64122;51.988;5.892;2022-12-18T10:15:46;1.76;60.75
75363;DHT22;64122;51.988;5.892;2022-12-18T10:18:25;1.77;60.43
75363;DHT22;64122;51.988;5.892;2022-12-18T10:21:03;1.84;60.44
75363;DHT22;64122;51.988;5.892;2022-12-18T10:23:40;1.85;60.25
75363;DHT22;64122;51.988;5.892;2022-12-18T10:26:11;1.92;60.07
75363;DHT22;64122;51.988;5.892;2022-12-18T10:28:41;2.00;59.73
75363;DHT22;64122;51.988;5.892;2022-12-18T10:31:15;2.07;59.67
75363;DHT22;64122;51.988;5.892;2022-12-18T10:33:45;2.00;59.70
75363;DHT22;64122;51.988;5.892;2022-12-18T10:36:17;2.11;59.77
75363;DHT22;64122;51.988;5.892;2022-12-18T10:38:46;2.17;59.49
75363;DHT22;64122;51.988;5.892;2022-12-18T10:41:25;2.24;59.51
75363;DHT22;64122;51.988;5.892;2022-12-18T10:44:12;2.25;59.58
75363;DHT22;64122;51.988;5.892;2022-12-18T10:46:41;2.24;59.34
75363;DHT22;64122;51.988;5.892;2022-12-18T10:49:20;2.31;59.34
75363;DHT22;64122;51.988;5.892;2022-12-18T10:52:05;2.40;59.35
75363;DHT22;64122;51.988;5.892;2022-12-18T10:54:34;2.40;58.99
75363;DHT22;64122;51.988;5.892;2022-12-18T10:57:28;2.44;58.74
75363;DHT22;64122;51.988;5.892;2022-12-18T11:00:01;2.45;58.79
75363;DHT22;64122;51.988;5.892;2022-12-18T11:02:34;2.50;58.41
75363;DHT22;64122;51.988;5.892;2022-12-18T11:05:23;2.50;58.58
75363;DHT22;64122;51.988;5.892;2022-12-18T11:07:56;2.53;58.48
75363;DHT22;64122;51.988;5.892;2022-12-18T11:10:29;2.54;58.35
75363;DHT22;64122;51.988;5.892;2022-12-18T11:13:10;2.60;58.45
75363;DHT22;64122;51.988;5.892;2022-12-18T11:15:41;2.62;58.37
75363;DHT22;64122;51.988;5.892;2022-12-18T11:18:17;2.72;58.27
75363;DHT22;64122;51.988;5.892;2022-12-18T11:20:52;2.72;57.84
75363;DHT22;64122;51.988;5.892;2022-12-18T11:23:27;2.70;57.50
75363;DHT22;64122;51.988;5.892;2022-12-18T11:25:58;2.68;57.65
75363;DHT22;64122;51.988;5.892;2022-12-18T11:28:36;2.68;57.49
75363;DHT22;64122;51.988;5.892;2022-12-18T11:31:19;2.66;57.35
75363;DHT22;64122;51.988;5.892;2022-12-18T11:34:04;2.60;57.18
75363;DHT22;64122;51.988;5.892;2022-12-18T11:36:41;2.66;57.33
75363;DHT22;64122;51.988;5.892;2022-12-18T11:39:18;2.66;57.11
75363;DHT22;64122;51.988;5.892;2022-12-18T11:41:53;2.62;57.01
75363;DHT22;64122;51.988;5.892;2022-12-18T11:44:43;2.68;56.99
75363;DHT22;64122;51.988;5.892;2022-12-18T11:47:23;2.73;56.99
75363;DHT22;64122;51.988;5.892;2022-12-18T11:49:58;2.82;56.97
75363;DHT22;64122;51.988;5.892;2022-12-18T11:52:33;2.90;56.88
75363;DHT22;64122;51.988;5.892;2022-12-18T11:55:11;2.93;56.72
75363;DHT22;64122;51.988;5.892;2022-12-18T11:57:46;2.89;56.57
75363;DHT22;64122;51.988;5.892;2022-12-18T12:00:18;2.97;56.58
75363;DHT22;64122;51.988;5.892;2022-12-18T12:03:12;3.04;56.69
75363;DHT22;64122;51.988;5.892;2022-12-18T12:05:50;3.01;56.05
75363;DHT22;64122;51.988;5.892;2022-12-18T12:08:34;3.01;56.15
75363;DHT22;64122;51.988;5.892;2022-12-18T12:11:12;3.11;56.18
75363;DHT22;64122;51.988;5.892;2022-12-18T12:13:50;3.18;56.01
75363;DHT22;64122;51.988;5.892;2022-12-18T12:16:24;3.25;56.07
75363;DHT22;64122;51.988;5.892;2022-12-18T12:19:10;3.27;55.89
75363;DHT22;64122;51.988;5.892;2022-12-18T12:21:49;3.28;55.86
75363;DHT22;64122;51.988;5.892;2022-12-18T12:24:29;3.25;55.60
75363;DHT22;64122;51.988;5.892;2022-12-18T12:27:10;3.26;55.84
75363;DHT22;64122;51.988;5.892;2022-12-18T12:29:52;3.29;55.70
75363;DHT22;64122;51.988;5.892;2022-12-18T12:32:42;3.24;55.71
75363;DHT22;64122;51.988;5.892;2022-12-18T12:35:25;3.21;55.63
75363;DHT22;64122;51.988;5.892;2022-12-18T12:38:06;3.23;55.49
75363;DHT22;64122;51.988;5.892;2022-12-18T12:40:43;3.24;55.39
75363;DHT22;64122;51.988;5.892;2022-12-18T12:43:28;3.24;55.56
75363;DHT22;64122;51.988;5.892;2022-12-18T12:46:05;3.25;55.45
75363;DHT22;64122;51.988;5.892;2022-12-18T12:48:44;3.21;55.41
75363;DHT22;64122;51.988;5.892;2022-12-18T12:51:19;3.18;55.17
75363;DHT22;64122;51.988;5.892;2022-12-18T12:53:50;3.17;55.10
75363;DHT22;64122;51.988;5.892;2022-12-18T12:56:20;3.18;55.26
75363;DHT22;64122;51.988;5.892;2022-12-18T12:59:02;3.24;55.37
75363;DHT22;64122;51.988;5.892;2022-12-18T13:01:38;3.26;55.13
75363;DHT22;64122;51.988;5.892;2022-12-18T13:04:18;3.29;54.95
75363;DHT22;64122;51.988;5.892;2022-12-18T13:06:54;3.25;54.73
75363;DHT22;64122;51.988;5.892;2022-12-18T13:09:30;3.28;54.75
75363;DHT22;64122;51.988;5.892;2022-12-18T13:12:03;3.27;54.58
75363;DHT22;64122;51.988;5.892;2022-12-18T13:14:48;3.24;54.82
75363;DHT22;64122;51.988;5.892;2022-12-18T13:17:27;3.24;54.74
75363;DHT22;64122;51.988;5.892;2022-12-18T13:20:06;3.19;54.81
75363;DHT22;64122;51.988;5.892;2022-12-18T13:22:37;3.17;54.90
75363;DHT22;64122;51.988;5.892;2022-12-18T13:25:28;3.18;54.98
75363;DHT22;64122;51.988;5.892;2022-12-18T13:28:01;3.16;54.71
75363;DHT22;64122;51.988;5.892;2022-12-18T13:30:52;3.20;54.75
75363;DHT22;64122;51.988;5.892;2022-12-18T13:33:40;3.21;54.79
75363;DHT22;64122;51.988;5.892;2022-12-18T13:36:14;3.21;54.55
75363;DHT22;64122;51.988;5.892;2022-12-18T13:38:44;3.19;54.60
75363;DHT22;64122;51.988;5.892;2022-12-18T13:41:31;3.18;54.64
75363;DHT22;64122;51.988;5.892;2022-12-18T13:44:11;3.18;54.52
75363;DHT22;64122;51.988;5.892;2022-12-18T13:46:48;3.21;54.53
75363;DHT22;64122;51.988;5.892;2022-12-18T13:49:22;3.21;54.46
75363;DHT22;64122;51.988;5.892;2022-12-18T13:51:54;3.24;54.33
75363;DHT22;64122;51.988;5.892;2022-12-18T13:54:33;3.21;54.40
75363;DHT22;64122;51.988;5.892;2022-12-18T13:57:04;3.23;54.49
75363;DHT22;64122;51.988;5.892;2022-12-18T13:59:35;3.24;54.36
75363;DHT22;64122;51.988;5.892;2022-12-18T14:02:14;3.20;54.28
75363;DHT22;64122;51.988;5.892;2022-12-18T14:04:45;3.20;54.31
75363;DHT22;64122;51.988;5.892;2022-12-18T14:07:17;3.20;54.18
75363;DHT22;64122;51.988;5.892;2022-12-18T14:09:50;3.24;54.20
75363;DHT22;64122;51.988;5.892;2022-12-18T14:12:25;3.23;54.01
75363;DHT22;64122;51.988;5.892;2022-12-18T14:15:20;3.24;54.18
75363;DHT22;64122;51.988;5.892;2022-12-18T14:17:56;3.24;53.97
75363;DHT22;64122;51.988;5.892;2022-12-18T14:20:27;3.26;53.87
75363;DHT22;64122;51.988;5.892;2022-12-18T14:23:00;3.25;53.89
75363;DHT22;64122;51.988;5.892;2022-12-18T14:25:30;3.25;53.83
75363;DHT22;64122;51.988;5.892;2022-12-18T14:28:07;3.24;53.75
75363;DHT22;64122;51.988;5.892;2022-12-18T14:30:42;3.25;53.85
75363;DHT22;64122;51.988;5.892;2022-12-18T14:33:15;3.27;53.89
75363;DHT22;64122;51.988;5.892;2022-12-18T14:35:54;3.25;53.92
75363;DHT22;64122;51.988;5.892;2022-12-18T14:38:26;3.20;53.83
75363;DHT22;64122;51.988;5.892;2022-12-18T14:40:57;3.20;53.89
75363;DHT22;64122;51.988;5.892;2022-12-18T14:43:28;3.21;53.95
75363;DHT22;64122;51.988;5.892;2022-12-18T14:45:57;3.21;54.10
75363;DHT22;64122;51.988;5.892;2022-12-18T14:48:40;3.25;53.98
75363;DHT22;64122;51.988;5.892;2022-12-18T14:51:16;3.21;53.88
75363;DHT22;64122;51.988;5.892;2022-12-18T14:53:47;3.21;54.01
75363;DHT22;64122;51.988;5.892;2022-12-18T14:56:19;3.19;53.88
75363;DHT22;64122;51.988;5.892;2022-12-18T14:58:51;3.18;53.89
75363;DHT22;64122;51.988;5.892;2022-12-18T15:01:25;3.16;53.83
75363;DHT22;64122;51.988;5.892;2022-12-18T15:03:58;3.12;53.84
75363;DHT22;64122;51.988;5.892;2022-12-18T15:06:31;3.12;54.10
75363;DHT22;64122;51.988;5.892;2022-12-18T15:09:03;3.08;54.07
75363;DHT22;64122;51.988;5.892;2022-12-18T15:11:43;3.08;54.23
75363;DHT22;64122;51.988;5.892;2022-12-18T15:14:24;3.04;54.35
75363;DHT22;64122;51.988;5.892;2022-12-18T15:16:54;3.02;54.42
75363;DHT22;64122;51.988;5.892;2022-12-18T15:19:33;3.01;54.51
75363;DHT22;64122;51.988;5.892;2022-12-18T15:22:03;3.01;54.68
75363;DHT22;64122;51.988;5.892;2022-12-18T15:24:32;3.03;54.70
75363;DHT22;64122;51.988;5.892;2022-12-18T15:27:01;3.06;54.73
75363;DHT22;64122;51.988;5.892;2022-12-18T15:29:31;3.05;54.63
75363;DHT22;64122;51.988;5.892;2022-12-18T15:32:02;3.03;54.67
75363;DHT22;64122;51.988;5.892;2022-12-18T15:34:34;3.04;54.71
75363;DHT22;64122;51.988;5.892;2022-12-18T15:37:04;3.03;54.92
75363;DHT22;64122;51.988;5.892;2022-12-18T15:39:33;3.05;54.97
75363;DHT22;64122;51.988;5.892;2022-12-18T15:42:02;3.05;54.97
75363;DHT22;64122;51.988;5.892;2022-12-18T15:44:44;3.04;54.98
75363;DHT22;64122;51.988;5.892;2022-12-18T15:47:14;3.01;54.87
75363;DHT22;64122;51.988;5.892;2022-12-18T15:49:46;2.98;54.84
75363;DHT22;64122;51.988;5.892;2022-12-18T15:52:15;2.99;55.01
75363;DHT22;64122;51.988;5.892;2022-12-18T15:54:51;3.02;55.04
75363;DHT22;64122;51.988;5.892;2022-12-18T15:57:33;3.02;54.97
75363;DHT22;64122;51.988;5.892;2022-12-18T16:00:03;3.02;55.00
75363;DHT22;64122;51.988;5.892;2022-12-18T16:02:33;3.02;55.04
75363;DHT22;64122;51.988;5.892;2022-12-18T16:05:10;3.03;54.95
75363;DHT22;64122;51.988;5.892;2022-12-18T16:07:43;3.01;54.84
75363;DHT22;64122;51.988;5.892;2022-12-18T16:10:12;3.02;54.86
75363;DHT22;64122;51.988;5.892;2022-12-18T16:12:42;3.05;54.74
75363;DHT22;64122;51.988;5.892;2022-12-18T16:15:13;3.09;54.65
75363;DHT22;64122;51.988;5.892;2022-12-18T16:17:43;3.10;54.68
75363;DHT22;64122;51.988;5.892;2022-12-18T16:20:16;3.12;54.53
75363;DHT22;64122;51.988;5.892;2022-12-18T16:22:47;3.09;54.54
75363;DHT22;64122;51.988;5.892;2022-12-18T16:25:19;3.10;54.28
75363;DHT22;64122;51.988;5.892;2022-12-18T16:27:50;3.08;54.40
75363;DHT22;64122;51.988;5.892;2022-12-18T16:30:22;3.04;54.44
75363;DHT22;64122;51.988;5.892;2022-12-18T16:32:53;3.01;54.35
75363;DHT22;64122;51.988;5.892;2022-12-18T16:35:26;2.98;54.26
75363;DHT22;64122;51.988;5.892;2022-12-18T16:37:55;2.95;54.42
75363;DHT22;64122;51.988;5.892;2022-12-18T16:40:24;2.94;54.49
75363;DHT22;64122;51.988;5.892;2022-12-18T16:42:53;2.95;54.49
75363;DHT22;64122;51.988;5.892;2022-12-18T16:45:23;2.94;54.45
75363;DHT22;64122;51.988;5.892;2022-12-18T16:47:52;2.89;54.45
75363;DHT22;64122;51.988;5.892;2022-12-18T16:50:21;2.85;54.52
75363;DHT22;64122;51.988;5.892;2022-12-18T16:52:53;2.85;54.59
75363;DHT22;64122;51.988;5.892;2022-12-18T16:55:22;2.87;54.72
75363;DHT22;64122;51.988;5.892;2022-12-18T16:57:51;2.88;54.75
75363;DHT22;64122;51.988;5.892;2022-12-18T17:00:21;2.90;54.75
75363;DHT22;64122;51.988;5.892;2022-12-18T17:02:52;2.89;54.73
75363;DHT22;64122;51.988;5.892;2022-12-18T17:05:21;2.87;54.81
75363;DHT22;64122;51.988;5.892;2022-12-18T17:07:53;2.88;54.76
75363;DHT22;64122;51.988;5.892;2022-12-18T17:10:22;2.89;55.02
75363;DHT22;64122;51.988;5.892;2022-12-18T17:12:51;2.89;54.90
75363;DHT22;64122;51.988;5.892;2022-12-18T17:15:21;2.87;54.91
75363;DHT22;64122;51.988;5.892;2022-12-18T17:17:50;2.86;54.91
75363;DHT22;64122;51.988;5.892;2022-12-18T17:20:19;2.85;54.98
75363;DHT22;64122;51.988;5.892;2022-12-18T17:22:48;2.88;55.07
75363;DHT22;64122;51.988;5.892;2022-12-18T17:25:20;2.90;54.97
75363;DHT22;64122;51.988;5.892;2022-12-18T17:27:49;2.90;55.20
75363;DHT22;64122;51.988;5.892;2022-12-18T17:30:19;2.91;55.16
75363;DHT22;64122;51.988;5.892;2022-12-18T17:32:48;2.95;55.22
75363;DHT22;64122;51.988;5.892;2022-12-18T17:35:17;2.97;55.04
75363;DHT22;64122;51.988;5.892;2022-12-18T17:37:48;2.99;55.15
75363;DHT22;64122;51.988;5.892;2022-12-18T17:40:19;3.00;55.20
75363;DHT22;64122;51.988;5.892;2022-12-18T17:42:51;3.02;55.20
75363;DHT22;64122;51.988;5.892;2022-12-18T17:45:21;3.01;55.17
75363;DHT22;64122;51.988;5.892;2022-12-18T17:47:50;2.98;55.03
75363;DHT22;64122;51.988;5.892;2022-12-18T17:50:19;2.98;55.16
75363;DHT22;64122;51.988;5.892;2022-12-18T17:52:48;2.98;55.22
75363;DHT22;64122;51.988;5.892;2022-12-18T17:55:21;3.00;55.17
75363;DHT22;64122;51.988;5.892;2022-12-18T17:57:53;3.00;55.23
75363;DHT22;64122;51.988;5.892;2022-12-18T18:00:22;3.01;55.22
75363;DHT22;64122;51.988;5.892;2022-12-18T18:02:52;3.02;55.32
75363;DHT22;64122;51.988;5.892;2022-12-18T18:05:21;3.01;55.22
75363;DHT22;64122;51.988;5.892;2022-12-18T18:07:50;2.99;55.23
75363;DHT22;64122;51.988;5.892;2022-12-18T18:10:22;2.99;55.26
75363;DHT22;64122;51.988;5.892;2022-12-18T18:12:52;2.98;55.41
75363;DHT22;64122;51.988;5.892;2022-12-18T18:15:33;2.99;55.49
75363;DHT22;64122;51.988;5.892;2022-12-18T18:18:03;3.01;55.42
75363;DHT22;64122;51.988;5.892;2022-12-18T18:20:32;3.03;55.47
75363;DHT22;64122;51.988;5.892;2022-12-18T18:23:01;3.06;55.39
75363;DHT22;64122;51.988;5.892;2022-12-18T18:25:35;3.11;55.36
75363;DHT22;64122;51.988;5.892;2022-12-18T18:28:04;3.10;55.40
75363;DHT22;64122;51.988;5.892;2022-12-18T18:30:35;3.08;55.35
75363;DHT22;64122;51.988;5.892;2022-12-18T18:33:05;3.05;55.52
75363;DHT22;64122;51.988;5.892;2022-12-18T18:35:34;3.03;55.65
75363;DHT22;64122;51.988;5.892;2022-12-18T18:38:03;3.04;55.60
75363;DHT22;64122;51.988;5.892;2022-12-18T18:40:36;3.04;55.73
75363;DHT22;64122;51.988;5.892;2022-12-18T18:43:05;3.03;55.65
75363;DHT22;64122;51.988;5.892;2022-12-18T18:45:34;3.03;55.73
75363;DHT22;64122;51.988;5.892;2022-12-18T18:48:06;3.04;55.69
75363;DHT22;64122;51.988;5.892;2022-12-18T18:50:35;3.01;55.75
75363;DHT22;64122;51.988;5.892;2022-12-18T18:53:05;3.02;55.82
75363;DHT22;64122;51.988;5.892;2022-12-18T18:55:37;3.05;55.82
75363;DHT22;64122;51.988;5.892;2022-12-18T18:58:06;3.03;55.93
75363;DHT22;64122;51.988;5.892;2022-12-18T19:00:39;3.01;56.02
75363;DHT22;64122;51.988;5.892;2022-12-18T19:03:10;2.99;56.11
75363;DHT22;64122;51.988;5.892;2022-12-18T19:05:39;2.96;56.25
75363;DHT22;64122;51.988;5.892;2022-12-18T19:08:09;2.99;56.26
75363;DHT22;64122;51.988;5.892;2022-12-18T19:10:41;3.00;56.21
75363;DHT22;64122;51.988;5.892;2022-12-18T19:13:13;2.99;56.33
75363;DHT22;64122;51.988;5.892;2022-12-18T19:15:52;2.97;56.40
75363;DHT22;64122;51.988;5.892;2022-12-18T19:18:22;3.00;56.55
75363;DHT22;64122;51.988;5.892;2022-12-18T19:20:56;3.02;56.52
75363;DHT22;64122;51.988;5.892;2022-12-18T19:23:26;3.02;56.62
75363;DHT22;64122;51.988;5.892;2022-12-18T19:26:02;3.04;56.52
75363;DHT22;64122;51.988;5.892;2022-12-18T19:28:33;3.01;56.67
75363;DHT22;64122;51.988;5.892;2022-12-18T19:31:04;3.03;56.63
75363;DHT22;64122;51.988;5.892;2022-12-18T19:33:35;3.06;56.68
75363;DHT22;64122;51.988;5.892;2022-12-18T19:36:09;3.05;56.66
75363;DHT22;64122;51.988;5.892;2022-12-18T19:38:39;3.04;56.70
75363;DHT22;64122;51.988;5.892;2022-12-18T19:41:11;3.04;56.61
75363;DHT22;64122;51.988;5.892;2022-12-18T19:43:42;3.05;56.72
75363;DHT22;64122;51.988;5.892;2022-12-18T19:46:13;3.06;56.78
75363;DHT22;64122;51.988;5.892;2022-12-18T19:48:44;3.06;56.75
75363;DHT22;64122;51.988;5.892;2022-12-18T19:51:15;3.05;56.81
75363;DHT22;64122;51.988;5.892;2022-12-18T19:53:46;3.10;56.87
75363;DHT22;64122;51.988;5.892;2022-12-18T19:56:20;3.10;56.81
75363;DHT22;64122;51.988;5.892;2022-12-18T19:58:51;3.13;56.77
75363;DHT22;64122;51.988;5.892;2022-12-18T20:01:21;3.11;56.84
75363;DHT22;64122;51.988;5.892;2022-12-18T20:03:51;3.17;56.89
75363;DHT22;64122;51.988;5.892;2022-12-18T20:06:24;3.19;56.79
75363;DHT22;64122;51.988;5.892;2022-12-18T20:08:55;3.20;56.88
75363;DHT22;64122;51.988;5.892;2022-12-18T20:11:27;3.26;56.84
75363;DHT22;64122;51.988;5.892;2022-12-18T20:13:57;3.26;57.03
75363;DHT22;64122;51.988;5.892;2022-12-18T20:16:30;3.26;57.30
75363;DHT22;64122;51.988;5.892;2022-12-18T20:18:59;3.28;57.43
75363;DHT22;64122;51.988;5.892;2022-12-18T20:21:28;3.28;57.68
75363;DHT22;64122;51.988;5.892;2022-12-18T20:23:58;3.27;57.87
75363;DHT22;64122;51.988;5.892;2022-12-18T20:26:30;3.25;58.01
75363;DHT22;64122;51.988;5.892;2022-12-18T20:29:02;3.25;58.21
75363;DHT22;64122;51.988;5.892;2022-12-18T20:31:32;3.21;58.40
75363;DHT22;64122;51.988;5.892;2022-12-18T20:34:01;3.20;58.58
75363;DHT22;64122;51.988;5.892;2022-12-18T20:36:31;3.20;58.54
75363;DHT22;64122;51.988;5.892;2022-12-18T20:39:00;3.20;58.75
75363;DHT22;64122;51.988;5.892;2022-12-18T20:41:32;3.23;58.90
75363;DHT22;64122;51.988;5.892;2022-12-18T20:44:01;3.25;59.23
75363;DHT22;64122;51.988;5.892;2022-12-18T20:46:30;3.27;59.39
75363;DHT22;64122;51.988;5.892;2022-12-18T20:49:02;3.31;59.61
75363;DHT22;64122;51.988;5.892;2022-12-18T20:51:31;3.34;59.70
75363;DHT22;64122;51.988;5.892;2022-12-18T20:54:01;3.35;60.00
75363;DHT22;64122;51.988;5.892;2022-12-18T20:56:32;3.39;60.06
75363;DHT22;64122;51.988;5.892;2022-12-18T20:59:02;3.40;60.13
75363;DHT22;64122;51.988;5.892;2022-12-18T21:01:34;3.43;60.37
75363;DHT22;64122;51.988;5.892;2022-12-18T21:04:03;3.43;60.21
75363;DHT22;64122;51.988;5.892;2022-12-18T21:06:33;3.39;60.42
75363;DHT22;64122;51.988;5.892;2022-12-18T21:09:02;3.38;60.70
75363;DHT22;64122;51.988;5.892;2022-12-18T21:11:34;3.41;60.88
75363;DHT22;64122;51.988;5.892;2022-12-18T21:14:18;3.38;61.05
75363;DHT22;64122;51.988;5.892;2022-12-18T21:16:48;3.39;61.20
75363;DHT22;64122;51.988;5.892;2022-12-18T21:19:20;3.36;61.22
75363;DHT22;64122;51.988;5.892;2022-12-18T21:21:51;3.33;61.47
75363;DHT22;64122;51.988;5.892;2022-12-18T21:24:21;3.30;61.89
75363;DHT22;64122;51.988;5.892;2022-12-18T21:26:53;3.29;61.80
75363;DHT22;64122;51.988;5.892;2022-12-18T21:29:25;3.27;62.07
75363;DHT22;64122;51.988;5.892;2022-12-18T21:31:55;3.25;62.28
75363;DHT22;64122;51.988;5.892;2022-12-18T21:34:26;3.26;62.28
75363;DHT22;64122;51.988;5.892;2022-12-18T21:36:57;3.25;62.47
75363;DHT22;64122;51.988;5.892;2022-12-18T21:39:28;3.25;62.74
75363;DHT22;64122;51.988;5.892;2022-12-18T21:42:00;3.23;62.82
75363;DHT22;64122;51.988;5.892;2022-12-18T21:44:42;3.23;63.01
75363;DHT22;64122;51.988;5.892;2022-12-18T21:47:11;3.23;63.14
75363;DHT22;64122;51.988;5.892;2022-12-18T21:49:41;3.24;63.33
75363;DHT22;64122;51.988;5.892;2022-12-18T21:52:10;3.27;63.39
75363;DHT22;64122;51.988;5.892;2022-12-18T21:54:39;3.27;63.44
75363;DHT22;64122;51.988;5.892;2022-12-18T21:57:11;3.25;63.67
75363;DHT22;64122;51.988;5.892;2022-12-18T21:59:41;3.20;63.89
75363;DHT22;64122;51.988;5.892;2022-12-18T22:02:12;3.24;64.00
75363;DHT22;64122;51.988;5.892;2022-12-18T22:04:43;3.27;64.08
75363;DHT22;64122;51.988;5.892;2022-12-18T22:07:13;3.29;64.16
75363;DHT22;64122;51.988;5.892;2022-12-18T22:09:42;3.28;64.18
75363;DHT22;64122;51.988;5.892;2022-12-18T22:12:15;3.28;64.41
75363;DHT22;64122;51.988;5.892;2022-12-18T22:15:01;3.28;64.54
75363;DHT22;64122;51.988;5.892;2022-12-18T22:17:30;3.30;64.61
75363;DHT22;64122;51.988;5.892;2022-12-18T22:20:00;3.33;64.77
75363;DHT22;64122;51.988;5.892;2022-12-18T22:22:29;3.36;64.75
75363;DHT22;64122;51.988;5.892;2022-12-18T22:24:58;3.39;64.92
75363;DHT22;64122;51.988;5.892;2022-12-18T22:27:30;3.42;64.76
75363;DHT22;64122;51.988;5.892;2022-12-18T22:29:59;3.41;64.89
75363;DHT22;64122;51.988;5.892;2022-12-18T22:32:29;3.40;65.11
75363;DHT22;64122;51.988;5.892;2022-12-18T22:34:59;3.38;65.32
75363;DHT22;64122;51.988;5.892;2022-12-18T22:37:28;3.39;65.27
75363;DHT22;64122;51.988;5.892;2022-12-18T22:39:57;3.33;65.56
75363;DHT22;64122;51.988;5.892;2022-12-18T22:42:27;3.32;65.68
75363;DHT22;64122;51.988;5.892;2022-12-18T22:44:59;3.34;65.66
75363;DHT22;64122;51.988;5.892;2022-12-18T22:47:28;3.34;65.75
75363;DHT22;64122;51.988;5.892;2022-12-18T22:49:57;3.36;65.77
75363;DHT22;64122;51.988;5.892;2022-12-18T22:52:29;3.38;65.86
75363;DHT22;64122;51.988;5.892;2022-12-18T22:54:58;3.38;65.91
75363;DHT22;64122;51.988;5.892;2022-12-18T22:57:28;3.35;66.00
75363;DHT22;64122;51.988;5.892;2022-12-18T23:00:00;3.36;65.93
75363;DHT22;64122;51.988;5.892;2022-12-18T23:02:29;3.39;66.11
75363;DHT22;64122;51.988;5.892;2022-12-18T23:04:58;3.41;65.95
75363;DHT22;64122;51.988;5.892;2022-12-18T23:07:28;3.40;65.94
75363;DHT22;64122;51.988;5.892;2022-12-18T23:09:57;3.38;66.01
75363;DHT22;64122;51.988;5.892;2022-12-18T23:12:26;3.33;66.25
75363;DHT22;64122;51.988;5.892;2022-12-18T23:14:55;3.29;66.36
75363;DHT22;64122;51.988;5.892;2022-12-18T23:17:27;3.28;66.34
75363;DHT22;64122;51.988;5.892;2022-12-18T23:19:57;3.24;66.69
75363;DHT22;64122;51.988;5.892;2022-12-18T23:22:28;3.27;66.49
75363;DHT22;64122;51.988;5.892;2022-12-18T23:24:58;3.26;66.63
75363;DHT22;64122;51.988;5.892;2022-12-18T23:27:27;3.26;66.67
75363;DHT22;64122;51.988;5.892;2022-12-18T23:29:56;3.27;66.67
75363;DHT22;64122;51.988;5.892;2022-12-18T23:32:28;3.27;66.73
75363;DHT22;64122;51.988;5.892;2022-12-18T23:35:00;3.24;66.84
75363;DHT22;64122;51.988;5.892;2022-12-18T23:37:29;3.23;66.94
75363;DHT22;64122;51.988;5.892;2022-12-18T23:39:59;3.27;66.74
75363;DHT22;64122;51.988;5.892;2022-12-18T23:42:28;3.30;66.83
75363;DHT22;64122;51.988;5.892;2022-12-18T23:44:57;3.33;66.80
75363;DHT22;64122;51.988;5.892;2022-12-18T23:47:29;3.32;66.73
75363;DHT22;64122;51.988;5.892;2022-12-18T23:49:58;3.33;66.87